Accueil
METAR-TAF:

METAR-TAF

Aéroports :

Base aérienne 126 Solenzara

Solenzara, France

latitude: 41-55N, longitude: 009-24E, altitude: 8 m

Observation

Le bulletin a été fait il y a 16 minutes, à 17:00 UTC
Vent 3 kt de direction variable
Température 27°C
Humidité 74%
Pression 1013 hPa
Visibilité 10 km ou plus
Nuages fragmentés à une hauteur de 3100 ft

METAR: LFKS 281700Z AUTO VRB03KT 9999 BKN031 27/22 Q1013

Heure: 19:16 (17:16 UTC)

Prévision

Le bulletin a été fait il y a 3 heures et 16 minutes, à 14:00 UTC
Prévision valable du 28 à 15 UTC au 29 à 15 UTC
Vent 5 kt de est
Visibilité 10 km ou plus
Quelques nuages à une hauteur de 2700 ft
Probabilité 30% :
Temporairement
du 28 à 19 UTC au 29 à 01 UTC
Nuages épars à une hauteur de 1000 ft

TAF: LFKS 281400Z 2815/2915 10005KT 9999 FEW027 PROB30 TEMPO 2819/2901 SCT010

Observations et prévisions météorologiques de plus de 4000 aéroports (messages METAR et TAF).

Les stations disponibles sont représentées par des disques jaunes et rouges sur la carte.

Passer la souris dessus pour voir le nom de la station.

Cliquer dessus pour voir les observations et prévisions météorologiques.

Pour changer de carte: cliquez sur les boutons verts avec une croix noire pour zoomer, sur le bouton vert avec un tiret pour effectuer un zoom arrière, ou sur les flèches vertes pour les cartes adjacentes.


METAR-TAF: